createdAt,value
2018-12-26T00:02:36.213Z,6.59
2018-12-26T00:05:17.382Z,6.60
2018-12-26T00:07:59.968Z,6.60
2018-12-26T00:10:44.680Z,6.62
2018-12-26T00:13:22.470Z,6.62
2018-12-26T00:16:13.627Z,6.63
2018-12-26T00:18:48.958Z,6.63
2018-12-26T00:21:27.279Z,6.64
2018-12-26T00:24:06.196Z,6.66
2018-12-26T00:26:50.186Z,6.65
2018-12-26T00:29:31.265Z,6.66
2018-12-26T00:32:17.038Z,6.68
2018-12-26T00:34:58.522Z,6.67
2018-12-26T00:37:41.918Z,6.68
2018-12-26T00:40:24.762Z,6.69
2018-12-26T00:43:10.848Z,6.71
2018-12-26T00:46:01.513Z,6.73
2018-12-26T00:48:42.606Z,6.75
2018-12-26T00:51:29.377Z,6.76
2018-12-26T00:54:09.024Z,6.78
2018-12-26T00:56:50.469Z,6.78
2018-12-26T00:59:35.445Z,6.81
2018-12-26T01:02:19.548Z,6.81
2018-12-26T01:05:01.248Z,6.83
2018-12-26T01:07:46.412Z,6.84
2018-12-26T01:10:33.258Z,6.83
2018-12-26T01:13:12.573Z,6.85
2018-12-26T01:15:54.049Z,6.86
2018-12-26T01:18:36.015Z,6.82
2018-12-26T01:21:26.519Z,6.85
2018-12-26T01:24:11.194Z,6.86
2018-12-26T01:27:02.310Z,6.85
2018-12-26T01:29:42.049Z,6.83
2018-12-26T01:32:21.954Z,6.82
2018-12-26T01:35:04.303Z,6.83
2018-12-26T01:37:48.625Z,6.84
2018-12-26T01:40:28.571Z,6.86
2018-12-26T01:43:12.365Z,6.86
2018-12-26T01:45:54.284Z,6.86
2018-12-26T01:48:36.937Z,6.86
2018-12-26T01:51:18.417Z,6.86
2018-12-26T01:54:03.256Z,6.84
2018-12-26T01:56:44.553Z,6.83
2018-12-26T01:59:26.705Z,6.85
2018-12-26T02:02:09.688Z,6.85
2018-12-26T02:04:52.894Z,6.86
2018-12-26T02:07:37.081Z,6.86
2018-12-26T02:10:18.289Z,6.88
2018-12-26T02:13:01.210Z,6.89
2018-12-26T02:15:43.155Z,6.88
2018-12-26T02:18:28.702Z,6.87
2018-12-26T02:21:20.268Z,6.89
2018-12-26T02:24:03.995Z,6.92
2018-12-26T02:27:42.541Z,6.92
2018-12-26T02:30:29.000Z,6.93
2018-12-26T02:33:08.486Z,6.92
2018-12-26T02:35:51.274Z,6.94
2018-12-26T02:38:31.415Z,6.97
2018-12-26T02:41:11.087Z,7.02
2018-12-26T02:43:51.845Z,7.03
2018-12-26T02:46:33.335Z,7.03
2018-12-26T02:49:25.683Z,7.04
2018-12-26T02:52:08.491Z,7.06
2018-12-26T02:54:49.831Z,7.05
2018-12-26T02:57:35.102Z,7.07
2018-12-26T03:00:16.182Z,7.06
2018-12-26T03:02:59.495Z,7.07
2018-12-26T03:05:42.909Z,7.08
2018-12-26T03:08:21.691Z,7.08
2018-12-26T03:11:04.183Z,7.10
2018-12-26T03:13:44.434Z,7.10
2018-12-26T03:16:26.853Z,7.12
2018-12-26T03:19:08.161Z,7.13
2018-12-26T03:21:50.128Z,7.12
2018-12-26T03:24:34.204Z,7.12
2018-12-26T03:27:17.827Z,7.12
2018-12-26T03:30:03.874Z,7.12
2018-12-26T03:32:46.465Z,7.12
2018-12-26T03:35:26.084Z,7.13
2018-12-26T03:38:05.945Z,7.13
2018-12-26T03:40:44.733Z,7.14
2018-12-26T03:43:24.867Z,7.14
2018-12-26T03:46:04.597Z,7.15
2018-12-26T03:48:42.707Z,7.13
2018-12-26T03:51:22.115Z,7.13
2018-12-26T03:54:04.402Z,7.15
2018-12-26T03:56:44.300Z,7.16
2018-12-26T03:59:28.362Z,7.16
2018-12-26T04:02:08.323Z,7.16
2018-12-26T04:04:49.910Z,7.16
2018-12-26T04:07:33.542Z,7.16
2018-12-26T04:10:13.913Z,7.14
2018-12-26T04:12:57.036Z,7.12
2018-12-26T04:15:37.677Z,7.09
2018-12-26T04:18:18.011Z,7.06
2018-12-26T04:20:57.678Z,7.04
2018-12-26T04:23:37.873Z,7.02
2018-12-26T04:26:20.279Z,7.01
2018-12-26T04:29:00.051Z,7.02
2018-12-26T04:31:40.196Z,7.04
2018-12-26T04:34:20.850Z,7.06
2018-12-26T04:37:00.827Z,6.96
2018-12-26T04:39:46.242Z,7.09
2018-12-26T04:42:26.714Z,7.11
2018-12-26T04:45:12.458Z,7.13
2018-12-26T04:47:55.470Z,7.16
2018-12-26T04:50:35.308Z,7.19
2018-12-26T04:53:20.394Z,7.20
2018-12-26T04:56:02.147Z,7.21
2018-12-26T04:58:46.545Z,7.25
2018-12-26T05:01:30.050Z,7.27
2018-12-26T05:04:09.710Z,7.29
2018-12-26T05:06:51.539Z,7.34
2018-12-26T05:09:31.275Z,7.38
2018-12-26T05:12:11.512Z,7.42
2018-12-26T05:14:52.630Z,7.44
2018-12-26T05:17:32.321Z,7.47
2018-12-26T05:20:11.296Z,7.49
2018-12-26T05:22:53.001Z,7.53
2018-12-26T05:25:31.354Z,7.57
2018-12-26T05:28:13.005Z,7.58
2018-12-26T05:30:53.123Z,7.61
2018-12-26T05:33:33.278Z,7.63
2018-12-26T05:36:12.743Z,7.65
2018-12-26T05:38:53.304Z,7.67
2018-12-26T05:41:33.148Z,7.69
2018-12-26T05:44:16.271Z,7.72
2018-12-26T05:46:55.532Z,7.73
2018-12-26T05:49:34.988Z,7.76
2018-12-26T05:52:17.996Z,7.76
2018-12-26T05:55:04.164Z,7.76
2018-12-26T05:57:43.370Z,7.77
2018-12-26T06:00:23.348Z,7.78
2018-12-26T06:03:00.799Z,7.78
2018-12-26T06:05:40.207Z,7.80
2018-12-26T06:08:22.354Z,7.81
2018-12-26T06:11:01.410Z,7.81
2018-12-26T06:13:40.035Z,7.68
2018-12-26T06:16:19.708Z,7.79
2018-12-26T06:18:59.387Z,7.78
2018-12-26T06:21:44.952Z,7.80
2018-12-26T06:24:25.809Z,7.80
2018-12-26T06:27:04.858Z,7.80
2018-12-26T06:29:44.801Z,7.79
2018-12-26T06:32:28.229Z,7.78
2018-12-26T06:35:15.837Z,7.78
2018-12-26T06:37:53.206Z,7.78
2018-12-26T06:40:32.517Z,7.77
2018-12-26T06:43:15.029Z,7.79
2018-12-26T06:45:57.119Z,7.80
2018-12-26T06:48:42.420Z,7.81
2018-12-26T06:51:22.404Z,7.84
2018-12-26T06:54:01.176Z,7.85
2018-12-26T06:56:44.361Z,7.89
2018-12-26T06:59:24.181Z,7.91
2018-12-26T07:02:04.745Z,7.94
2018-12-26T07:04:43.479Z,7.97
2018-12-26T07:07:23.315Z,8.00
2018-12-26T07:09:58.928Z,8.03
2018-12-26T07:12:36.285Z,8.05
2018-12-26T07:15:18.033Z,8.07
2018-12-26T07:17:55.352Z,8.10
2018-12-26T07:20:30.284Z,8.11
2018-12-26T07:23:04.884Z,8.14
2018-12-26T07:25:47.400Z,8.18
2018-12-26T07:28:30.588Z,8.20
2018-12-26T07:31:12.235Z,8.22
2018-12-26T07:33:50.373Z,8.23
2018-12-26T07:36:32.575Z,8.23
2018-12-26T07:39:12.419Z,8.24
2018-12-26T07:41:50.728Z,8.24
2018-12-26T07:44:30.303Z,8.24
2018-12-26T07:47:10.401Z,8.25
2018-12-26T07:49:54.051Z,8.27
2018-12-26T07:52:30.005Z,8.28
2018-12-26T07:55:17.971Z,8.30
2018-12-26T07:57:57.767Z,8.31
2018-12-26T08:00:38.260Z,8.31
2018-12-26T08:03:27.785Z,8.32
2018-12-26T08:06:15.048Z,8.35
2018-12-26T08:08:55.685Z,8.35
2018-12-26T08:11:33.729Z,8.38
2018-12-26T08:14:23.122Z,8.41
2018-12-26T08:17:15.024Z,8.43
2018-12-26T08:19:55.493Z,8.42
2018-12-26T08:22:35.987Z,8.43
2018-12-26T08:25:23.123Z,8.41
2018-12-26T08:28:06.354Z,8.44
2018-12-26T08:30:44.899Z,8.45
2018-12-26T08:33:34.405Z,8.47
2018-12-26T08:36:13.370Z,8.49
2018-12-26T08:38:51.298Z,8.51
2018-12-26T08:41:32.382Z,8.54
2018-12-26T08:44:14.003Z,8.54
2018-12-26T08:46:54.600Z,8.58
2018-12-26T08:49:38.346Z,8.60
2018-12-26T19:15:31.442Z,8.22
2018-12-26T19:18:11.481Z,8.21
2018-12-26T19:20:54.521Z,8.22
2018-12-26T19:23:48.342Z,8.23
2018-12-26T19:26:35.828Z,8.22
2018-12-26T19:29:18.727Z,8.23
2018-12-26T19:32:06.956Z,8.24
2018-12-26T19:34:49.412Z,8.21
2018-12-26T19:37:31.937Z,8.17
2018-12-26T19:40:12.302Z,8.13
2018-12-26T19:42:54.472Z,8.10
2018-12-26T19:45:32.073Z,8.08
2018-12-26T19:48:10.634Z,8.06
2018-12-26T19:50:52.717Z,8.04
2018-12-26T19:53:30.945Z,8.03
2018-12-26T19:56:07.467Z,8.02
2018-12-26T19:58:50.514Z,8.01
2018-12-26T20:01:33.882Z,7.99
2018-12-26T20:04:10.940Z,7.97
2018-12-26T20:06:51.969Z,7.96
2018-12-26T20:09:40.892Z,7.95
2018-12-26T20:12:18.730Z,7.93
2018-12-26T20:14:58.344Z,7.93
2018-12-26T20:17:43.746Z,7.90
2018-12-26T20:20:32.114Z,7.88
2018-12-26T20:23:26.708Z,7.84
2018-12-26T20:26:06.999Z,7.82
2018-12-26T20:28:47.880Z,7.80
2018-12-26T20:31:26.201Z,7.78
2018-12-26T20:34:08.568Z,7.75
2018-12-26T20:36:53.005Z,7.73
2018-12-26T20:39:32.523Z,7.73
2018-12-26T20:42:07.070Z,7.70
2018-12-26T20:44:45.012Z,7.70
2018-12-26T20:47:40.816Z,7.67
2018-12-26T20:50:20.134Z,7.67
2018-12-26T20:52:57.985Z,7.63
2018-12-26T20:55:39.744Z,7.62
2018-12-26T20:58:16.008Z,7.61
2018-12-26T21:00:53.879Z,7.61
2018-12-26T21:03:32.675Z,7.60
2018-12-26T21:06:09.950Z,7.61
2018-12-26T21:08:50.736Z,7.62
2018-12-26T21:11:27.572Z,7.61
2018-12-26T21:14:03.351Z,7.59
2018-12-26T21:16:43.073Z,7.59
2018-12-26T21:19:33.547Z,7.59
2018-12-26T21:22:09.787Z,7.60
2018-12-26T21:24:44.773Z,7.60
2018-12-26T21:27:23.896Z,7.58
2018-12-26T21:30:00.755Z,7.57
2018-12-26T21:32:40.310Z,7.56
2018-12-26T21:35:20.232Z,7.57
2018-12-26T21:38:00.478Z,7.55
2018-12-26T21:40:39.806Z,7.55
2018-12-26T21:43:36.792Z,7.52
2018-12-26T21:46:16.990Z,7.51
2018-12-26T21:48:53.678Z,7.51
2018-12-26T21:51:39.271Z,7.51
2018-12-26T21:54:22.759Z,7.50
2018-12-26T21:57:02.960Z,7.47
2018-12-26T21:59:44.848Z,7.31
2018-12-26T22:02:29.514Z,7.40
2018-12-26T22:05:11.319Z,7.39
2018-12-26T22:08:02.713Z,7.37
2018-12-26T22:10:44.970Z,7.36
2018-12-26T22:13:39.412Z,7.34
2018-12-26T22:16:21.384Z,7.30
2018-12-26T22:19:00.012Z,7.28
2018-12-26T22:21:43.276Z,7.27
2018-12-26T22:24:42.441Z,7.26
2018-12-26T22:27:35.761Z,7.22
2018-12-26T22:30:16.094Z,7.19
2018-12-26T22:32:58.482Z,7.19
